createdAt,value
2018-07-29T00:00:12.778Z,0.00
2018-07-29T00:01:12.769Z,0.00
2018-07-29T00:02:13.055Z,0.00
2018-07-29T00:03:12.789Z,0.00
2018-07-29T00:04:12.727Z,0.00
2018-07-29T00:05:12.715Z,0.00
2018-07-29T00:06:12.708Z,0.00
2018-07-29T00:07:12.687Z,0.00
2018-07-29T00:08:12.675Z,0.00
2018-07-29T00:09:13.015Z,0.00
2018-07-29T00:10:12.655Z,0.00
2018-07-29T00:11:12.636Z,0.00
2018-07-29T00:12:12.670Z,0.00
2018-07-29T00:13:12.610Z,0.00
2018-07-29T00:14:12.600Z,0.00
2018-07-29T00:15:12.884Z,0.00
2018-07-29T00:16:12.571Z,0.00
2018-07-29T00:17:12.575Z,0.00
2018-07-29T00:18:12.548Z,0.00
2018-07-29T00:19:12.531Z,0.00
2018-07-29T00:20:12.517Z,0.00
2018-07-29T00:21:12.808Z,0.00
2018-07-29T00:22:12.491Z,0.00
2018-07-29T00:23:12.476Z,0.00
2018-07-29T00:24:12.463Z,0.00
2018-07-29T00:25:12.456Z,0.00
2018-07-29T00:26:12.435Z,0.00
2018-07-29T00:27:12.726Z,0.00
2018-07-29T00:28:12.410Z,0.00
2018-07-29T00:29:12.402Z,0.00
2018-07-29T00:30:12.415Z,0.00
2018-07-29T00:31:12.372Z,0.00
2018-07-29T00:32:12.358Z,0.00
2018-07-29T00:33:12.644Z,0.00
2018-07-29T00:34:12.336Z,0.00
2018-07-29T00:35:12.323Z,0.00
2018-07-29T00:36:12.303Z,0.00
2018-07-29T00:37:12.294Z,0.00
2018-07-29T00:38:12.278Z,0.00
2018-07-29T00:39:12.579Z,0.00
2018-07-29T00:40:12.249Z,0.00
2018-07-29T00:41:12.256Z,0.00
2018-07-29T00:42:12.232Z,0.00
2018-07-29T00:43:12.207Z,0.00
2018-07-29T00:44:12.235Z,0.00
2018-07-29T00:45:12.487Z,0.00
2018-07-29T00:46:12.168Z,0.00
2018-07-29T00:47:12.157Z,0.00
2018-07-29T00:48:12.143Z,0.00
2018-07-29T00:49:12.127Z,0.00
2018-07-29T00:50:12.113Z,0.00
2018-07-29T00:51:12.400Z,0.00
2018-07-29T00:52:12.097Z,0.00
2018-07-29T00:53:12.150Z,0.00
2018-07-29T00:54:12.060Z,0.00
2018-07-29T00:55:12.046Z,0.00
2018-07-29T00:56:12.033Z,0.00
2018-07-29T00:57:12.070Z,0.00
2018-07-29T00:58:12.307Z,0.00
2018-07-29T00:59:11.992Z,0.00
2018-07-29T01:00:11.978Z,0.00
2018-07-29T01:01:11.966Z,0.00
2018-07-29T01:02:11.952Z,0.00
2018-07-29T01:03:11.987Z,0.00
2018-07-29T01:04:11.924Z,0.00
2018-07-29T01:05:12.212Z,0.00
2018-07-29T01:06:11.895Z,0.00
2018-07-29T01:07:11.884Z,0.00
2018-07-29T01:08:12.075Z,0.00
2018-07-29T01:09:11.949Z,0.00
2018-07-29T01:10:11.842Z,0.00
2018-07-29T01:11:11.829Z,0.00
2018-07-29T01:12:12.118Z,0.00
2018-07-29T01:13:11.806Z,0.00
2018-07-29T01:14:11.791Z,0.00
2018-07-29T01:15:11.824Z,0.00
2018-07-29T01:16:11.760Z,0.00
2018-07-29T01:17:11.747Z,0.00
2018-07-29T01:18:11.737Z,0.00
2018-07-29T01:19:11.720Z,0.00
2018-07-29T01:20:11.711Z,0.00
2018-07-29T01:21:11.743Z,0.00
2018-07-29T01:22:11.679Z,0.00
2018-07-29T01:23:11.666Z,0.00
2018-07-29T01:24:11.653Z,0.00
2018-07-29T01:25:11.939Z,0.00
2018-07-29T01:26:11.625Z,0.00
2018-07-29T01:27:11.660Z,0.00
2018-07-29T01:28:11.599Z,0.00
2018-07-29T01:29:11.589Z,0.00
2018-07-29T01:30:11.571Z,0.00
2018-07-29T01:31:11.558Z,0.00
2018-07-29T01:32:11.842Z,0.00
2018-07-29T01:33:11.580Z,0.00
2018-07-29T01:34:11.516Z,0.00
2018-07-29T01:35:11.504Z,0.00
2018-07-29T01:36:11.489Z,0.00
2018-07-29T01:37:11.475Z,0.00
2018-07-29T01:38:11.465Z,0.00
2018-07-29T01:39:11.748Z,0.00
2018-07-29T01:40:11.436Z,0.00
2018-07-29T01:41:11.419Z,0.00
2018-07-29T01:42:11.405Z,0.00
2018-07-29T01:43:11.392Z,0.00
2018-07-29T01:44:11.379Z,0.00
2018-07-29T01:45:11.413Z,0.00
2018-07-29T01:46:11.383Z,0.00
2018-07-29T01:47:11.343Z,0.00
2018-07-29T01:48:11.323Z,0.00
2018-07-29T01:49:11.311Z,0.00
2018-07-29T01:50:11.296Z,0.00
2018-07-29T01:51:11.333Z,0.00
2018-07-29T01:52:11.568Z,0.00
2018-07-29T01:53:11.286Z,0.00
2018-07-29T01:54:11.239Z,0.00
2018-07-29T01:55:11.228Z,0.00
2018-07-29T01:56:11.212Z,0.00
2018-07-29T01:57:11.252Z,0.00
2018-07-29T01:58:11.487Z,0.00
2018-07-29T01:59:11.173Z,0.00
2018-07-29T02:00:11.160Z,0.00
2018-07-29T02:01:11.145Z,0.00
2018-07-29T02:02:11.129Z,0.00
2018-07-29T02:03:11.168Z,0.00
2018-07-29T02:04:11.404Z,0.00
2018-07-29T02:05:11.090Z,0.00
2018-07-29T02:06:11.074Z,0.00
2018-07-29T02:07:11.061Z,0.00
2018-07-29T02:08:11.049Z,0.00
2018-07-29T02:09:11.086Z,0.00
2018-07-29T02:10:11.325Z,0.00
2018-07-29T02:11:11.006Z,0.00
2018-07-29T02:12:10.995Z,0.00
2018-07-29T02:13:10.979Z,0.00
2018-07-29T02:14:10.966Z,0.00
2018-07-29T02:15:11.001Z,0.00
2018-07-29T02:16:11.235Z,0.00
2018-07-29T02:17:10.923Z,0.00
2018-07-29T02:18:10.916Z,0.00
2018-07-29T02:19:10.897Z,0.00
2018-07-29T02:20:10.883Z,0.00
2018-07-29T02:21:10.920Z,0.00
2018-07-29T02:22:11.161Z,0.00
2018-07-29T02:23:10.845Z,0.00
2018-07-29T02:24:10.826Z,0.00
2018-07-29T02:25:10.812Z,0.00
2018-07-29T02:26:10.799Z,0.00
2018-07-29T02:27:10.835Z,0.00
2018-07-29T02:28:10.774Z,0.00
2018-07-29T02:29:11.057Z,0.00
2018-07-29T02:30:10.742Z,0.00
2018-07-29T02:31:10.728Z,0.00
2018-07-29T02:32:10.717Z,0.00
2018-07-29T02:33:10.752Z,0.00
2018-07-29T02:34:10.688Z,0.00
2018-07-29T02:35:10.671Z,0.00
2018-07-29T02:36:10.962Z,0.00
2018-07-29T02:37:10.647Z,0.00
2018-07-29T02:38:10.631Z,0.00
2018-07-29T02:39:10.672Z,0.00
2018-07-29T02:40:10.620Z,0.00
2018-07-29T02:41:10.632Z,0.00
2018-07-29T02:42:10.586Z,0.00
2018-07-29T02:43:10.862Z,0.00
2018-07-29T02:44:10.549Z,0.00
2018-07-29T02:45:10.585Z,0.00
2018-07-29T02:46:10.522Z,0.00
2018-07-29T02:47:10.506Z,0.00
2018-07-29T02:48:10.496Z,0.00
2018-07-29T02:49:10.479Z,0.00
2018-07-29T02:50:10.768Z,0.00
2018-07-29T02:51:10.503Z,0.00
2018-07-29T02:52:10.439Z,0.00
2018-07-29T02:53:10.425Z,0.00
2018-07-29T02:54:10.409Z,0.00
2018-07-29T02:55:10.396Z,0.00
2018-07-29T02:56:10.383Z,0.00
2018-07-29T02:57:10.667Z,4.00
2018-07-29T02:58:10.353Z,4.00
2018-07-29T02:59:10.356Z,4.00
2018-07-29T03:00:10.329Z,0.00
2018-07-29T03:01:10.317Z,4.00
2018-07-29T03:02:10.297Z,4.00
2018-07-29T03:03:10.334Z,8.00
2018-07-29T03:04:10.566Z,4.00
2018-07-29T03:05:10.260Z,8.00
2018-07-29T03:06:10.243Z,8.00
2018-07-29T03:07:10.225Z,8.00
2018-07-29T03:08:10.211Z,12.00
2018-07-29T03:09:10.264Z,12.00
2018-07-29T03:10:10.183Z,12.00
2018-07-29T03:11:10.470Z,16.00
2018-07-29T03:12:10.162Z,16.00
2018-07-29T03:13:10.142Z,16.00
2018-07-29T03:14:10.135Z,20.00
2018-07-29T03:15:10.165Z,20.00
2018-07-29T03:16:10.104Z,24.00
2018-07-29T03:17:10.385Z,28.00
2018-07-29T03:18:10.080Z,32.00
2018-07-29T03:19:10.055Z,32.00
2018-07-29T03:20:10.046Z,36.00
2018-07-29T03:21:10.079Z,40.00
2018-07-29T03:22:10.014Z,48.00
2018-07-29T03:23:10.297Z,48.00
2018-07-29T03:24:09.991Z,52.00
2018-07-29T03:25:09.972Z,60.00
2018-07-29T03:26:09.956Z,68.00
2018-07-29T03:27:09.992Z,72.00
2018-07-29T03:28:09.930Z,80.00
2018-07-29T03:29:10.215Z,84.00
2018-07-29T03:30:09.900Z,92.00
2018-07-29T03:31:09.911Z,100.00
2018-07-29T03:32:09.873Z,108.00
2018-07-29T03:33:09.906Z,116.00
2018-07-29T03:34:09.841Z,128.00
2018-07-29T03:35:10.129Z,140.00
2018-07-29T03:36:09.812Z,152.00
2018-07-29T03:37:09.800Z,164.00
2018-07-29T03:38:09.784Z,180.00
2018-07-29T03:39:09.820Z,192.00
2018-07-29T03:40:09.759Z,208.00
2018-07-29T03:41:10.042Z,224.00
2018-07-29T03:42:09.791Z,240.00
2018-07-29T03:43:09.713Z,256.00
2018-07-29T03:44:09.700Z,280.00
2018-07-29T03:45:09.735Z,300.00
2018-07-29T03:46:09.670Z,316.00
2018-07-29T03:47:09.956Z,336.00
2018-07-29T03:48:09.641Z,360.00
2018-07-29T03:49:09.627Z,380.00
2018-07-29T03:50:09.614Z,400.00
2018-07-29T03:51:09.648Z,420.00
2018-07-29T03:52:09.584Z,440.00
2018-07-29T03:53:09.871Z,460.00
2018-07-29T03:54:09.556Z,480.00
2018-07-29T03:55:09.548Z,496.00
2018-07-29T03:56:09.527Z,512.00
2018-07-29T03:57:09.561Z,524.00
2018-07-29T03:58:09.496Z,540.00
2018-07-29T03:59:09.483Z,556.00
2018-07-29T04:00:09.770Z,568.00
2018-07-29T04:01:09.459Z,580.00
2018-07-29T04:02:09.440Z,600.00
2018-07-29T04:03:09.476Z,616.00
2018-07-29T04:04:09.410Z,628.00
2018-07-29T04:05:09.399Z,640.00
2018-07-29T04:06:09.381Z,656.00
2018-07-29T04:07:09.670Z,672.00
2018-07-29T04:08:09.354Z,692.00
2018-07-29T04:09:09.392Z,712.00
2018-07-29T04:10:09.324Z,728.00
2018-07-29T04:11:09.311Z,744.00
2018-07-29T04:12:09.357Z,760.00
2018-07-29T04:13:09.284Z,772.00
2018-07-29T04:14:09.568Z,784.00
2018-07-29T04:15:09.302Z,796.00
2018-07-29T04:16:09.237Z,812.00
2018-07-29T04:17:09.226Z,832.00
2018-07-29T04:18:09.219Z,848.00
2018-07-29T04:19:09.194Z,864.00
2018-07-29T04:20:09.181Z,880.00
2018-07-29T04:21:09.466Z,888.00
2018-07-29T04:22:09.157Z,896.00
2018-07-29T04:23:09.139Z,896.00
2018-07-29T04:24:09.122Z,900.00
2018-07-29T04:25:09.111Z,904.00
2018-07-29T04:26:09.098Z,912.00
2018-07-29T04:27:09.130Z,928.00
2018-07-29T04:28:09.368Z,940.00
2018-07-29T04:29:09.055Z,952.00
2018-07-29T04:30:09.040Z,968.00
2018-07-29T04:31:09.024Z,980.00
2018-07-29T04:32:09.012Z,992.00
2018-07-29T04:33:09.046Z,1008.00
2018-07-29T04:34:08.979Z,1020.00
2018-07-29T04:35:09.269Z,1036.00
2018-07-29T04:36:08.953Z,1048.00
2018-07-29T04:37:08.937Z,1060.00
2018-07-29T04:38:08.920Z,1076.00
2018-07-29T04:39:08.959Z,1088.00
2018-07-29T04:40:08.898Z,1104.00
2018-07-29T04:41:08.878Z,1120.00
2018-07-29T04:42:09.165Z,1132.00
2018-07-29T04:43:08.850Z,1144.00
2018-07-29T04:44:08.838Z,1156.00
2018-07-29T04:45:08.873Z,1172.00
2018-07-29T04:46:08.806Z,1192.00
2018-07-29T04:47:08.799Z,1208.00
2018-07-29T04:48:09.079Z,1224.00
2018-07-29T04:49:08.770Z,1236.00
2018-07-29T04:50:08.749Z,1256.00
2018-07-29T04:51:08.784Z,1276.00
2018-07-29T04:52:08.722Z,1292.00
2018-07-29T04:53:08.708Z,1308.00
2018-07-29T04:54:08.992Z,1324.00
2018-07-29T04:55:08.678Z,1340.00
2018-07-29T04:56:08.663Z,1360.00
2018-07-29T04:57:08.698Z,1384.00
2018-07-29T04:58:08.637Z,1412.00
2018-07-29T04:59:08.632Z,1444.00
2018-07-29T05:00:08.909Z,1472.00
2018-07-29T05:01:08.593Z,1496.00
2018-07-29T05:02:08.577Z,1520.00
2018-07-29T05:03:08.612Z,1532.00
2018-07-29T05:04:08.556Z,1556.00
2018-07-29T05:05:08.535Z,1584.00
2018-07-29T05:06:08.824Z,1620.00
2018-07-29T05:07:08.511Z,1676.00
2018-07-29T05:08:08.493Z,1712.00
2018-07-29T05:09:08.530Z,1760.00
2018-07-29T05:10:08.462Z,1824.00
2018-07-29T05:11:08.450Z,1880.00
2018-07-29T05:12:08.435Z,1940.00
2018-07-29T05:13:08.423Z,2008.00
2018-07-29T05:14:08.409Z,2088.00
2018-07-29T05:15:08.441Z,2176.00
2018-07-29T05:16:08.379Z,2268.00
2018-07-29T05:17:08.365Z,2372.00
2018-07-29T05:18:08.652Z,2480.00
2018-07-29T05:19:08.336Z,2588.00
2018-07-29T05:20:08.324Z,2700.00
2018-07-29T05:21:08.359Z,2776.00
2018-07-29T05:22:08.293Z,2816.00
2018-07-29T05:23:08.287Z,2856.00
2018-07-29T05:24:08.267Z,2912.00
2018-07-29T05:25:08.350Z,2972.00
2018-07-29T05:26:08.239Z,3028.00
2018-07-29T05:27:08.278Z,3064.00
2018-07-29T05:28:08.211Z,3064.00
2018-07-29T05:29:08.199Z,3064.00
2018-07-29T05:30:08.486Z,3056.00
2018-07-29T05:31:08.169Z,3028.00
2018-07-29T05:32:08.158Z,3000.00
2018-07-29T05:33:08.197Z,2960.00
2018-07-29T05:34:08.135Z,2912.00
2018-07-29T05:35:08.116Z,2848.00
2018-07-29T05:36:08.104Z,2788.00
2018-07-29T05:37:08.389Z,2732.00
2018-07-29T05:38:08.076Z,2660.00
2018-07-29T05:39:08.114Z,2576.00
2018-07-29T05:40:08.050Z,2504.00
2018-07-29T05:41:08.036Z,2452.00
2018-07-29T05:42:08.021Z,2380.00
2018-07-29T05:43:08.009Z,2340.00
2018-07-29T05:44:08.293Z,2284.00
2018-07-29T05:45:08.048Z,2244.00
2018-07-29T05:46:07.968Z,2208.00
2018-07-29T05:47:07.956Z,2164.00
2018-07-29T05:48:07.942Z,2140.00
2018-07-29T05:49:07.926Z,2132.00
2018-07-29T05:50:07.920Z,2108.00
2018-07-29T05:51:08.202Z,2064.00
2018-07-29T05:52:07.887Z,2048.00
2018-07-29T05:53:07.875Z,2076.00
2018-07-29T05:54:07.864Z,2068.00
2018-07-29T05:55:07.878Z,2044.00
2018-07-29T05:56:07.892Z,2068.00
2018-07-29T05:57:07.877Z,2068.00
2018-07-29T05:58:08.110Z,2096.00
2018-07-29T05:59:07.794Z,2116.00
2018-07-29T06:00:07.784Z,2108.00
2018-07-29T06:01:07.777Z,2072.00
2018-07-29T06:02:07.757Z,2072.00
2018-07-29T06:03:07.794Z,2144.00
2018-07-29T06:04:07.760Z,2232.00
2018-07-29T06:05:08.023Z,2292.00
2018-07-29T06:06:07.704Z,2436.00
2018-07-29T06:07:07.691Z,2524.00
2018-07-29T06:08:07.679Z,2620.00
2018-07-29T06:09:07.722Z,2696.00
2018-07-29T06:10:07.652Z,2740.00
2018-07-29T06:11:07.638Z,2776.00
2018-07-29T06:12:07.926Z,2824.00
2018-07-29T06:13:07.615Z,2872.00
2018-07-29T06:14:07.599Z,2920.00
2018-07-29T06:15:07.662Z,2980.00
2018-07-29T06:16:07.577Z,3016.00
2018-07-29T06:17:07.578Z,3024.00
2018-07-29T06:18:07.551Z,3044.00
2018-07-29T06:19:07.841Z,3056.00
2018-07-29T06:20:07.523Z,3032.00
2018-07-29T06:21:07.560Z,2980.00
2018-07-29T06:22:07.496Z,2920.00
2018-07-29T06:23:07.489Z,2832.00
2018-07-29T06:24:07.477Z,2704.00
2018-07-29T06:25:07.763Z,2608.00
2018-07-29T06:26:07.514Z,2516.00
2018-07-29T06:27:07.486Z,2416.00
2018-07-29T06:28:07.453Z,2324.00
2018-07-29T06:29:07.412Z,2256.00
2018-07-29T06:30:07.397Z,2224.00
2018-07-29T06:31:07.683Z,2220.00
2018-07-29T06:32:07.372Z,2212.00
2018-07-29T06:33:07.409Z,2232.00
2018-07-29T06:34:07.347Z,2232.00
2018-07-29T06:35:07.332Z,2220.00
2018-07-29T06:36:07.321Z,2220.00
2018-07-29T06:37:07.307Z,2232.00
2018-07-29T06:38:07.296Z,2248.00
2018-07-29T06:39:07.333Z,2280.00
2018-07-29T06:40:07.271Z,2324.00
2018-07-29T06:41:07.258Z,2376.00
2018-07-29T06:42:07.244Z,2412.00
2018-07-29T06:43:07.534Z,2432.00
2018-07-29T06:44:07.223Z,2452.00
2018-07-29T06:45:07.259Z,2468.00
2018-07-29T06:46:07.195Z,2484.00
2018-07-29T06:47:07.217Z,2496.00
2018-07-29T06:48:07.169Z,2512.00
2018-07-29T06:49:07.504Z,2524.00
2018-07-29T06:50:07.144Z,2516.00
2018-07-29T06:51:07.184Z,2516.00
2018-07-29T06:52:07.130Z,2508.00
2018-07-29T06:53:07.109Z,2496.00
2018-07-29T06:54:07.095Z,2484.00
2018-07-29T06:55:07.399Z,2452.00
2018-07-29T06:56:07.087Z,2392.00
2018-07-29T06:57:07.110Z,2340.00
2018-07-29T06:58:07.052Z,2312.00
2018-07-29T06:59:07.105Z,2292.00
2018-07-29T07:00:07.029Z,2268.00
2018-07-29T07:01:07.010Z,2256.00
2018-07-29T07:02:07.300Z,2248.00
2018-07-29T07:03:07.067Z,2264.00
2018-07-29T07:04:06.973Z,2292.00
2018-07-29T07:05:07.002Z,2320.00
2018-07-29T07:06:06.949Z,2380.00
2018-07-29T07:07:06.937Z,2432.00
2018-07-29T07:08:06.925Z,2496.00
2018-07-29T07:09:07.219Z,2580.00
2018-07-29T07:10:06.899Z,2672.00
2018-07-29T07:11:06.889Z,2736.00
2018-07-29T07:12:06.876Z,2792.00
2018-07-29T07:13:06.869Z,2808.00
2018-07-29T07:14:06.852Z,2768.00
2018-07-29T07:15:06.941Z,2760.00
2018-07-29T07:16:07.134Z,2772.00
2018-07-29T07:17:06.818Z,2756.00
2018-07-29T07:18:06.875Z,2752.00
2018-07-29T07:19:06.789Z,2744.00
2018-07-29T07:20:06.780Z,2744.00
2018-07-29T07:21:06.815Z,2712.00
2018-07-29T07:22:06.754Z,2644.00
2018-07-29T07:23:07.042Z,2624.00
2018-07-29T07:24:06.731Z,2580.00
2018-07-29T07:25:06.731Z,2516.00
2018-07-29T07:26:06.751Z,2448.00
2018-07-29T07:27:06.841Z,2376.00
2018-07-29T07:28:06.680Z,2352.00
2018-07-29T07:29:06.670Z,2336.00
2018-07-29T07:30:06.963Z,2332.00
2018-07-29T07:31:06.644Z,2336.00
2018-07-29T07:32:06.631Z,2316.00
2018-07-29T07:33:07.871Z,2456.00
2018-07-29T07:34:06.620Z,2464.00
2018-07-29T07:35:06.651Z,2648.00
2018-07-29T07:36:06.588Z,2788.00
2018-07-29T07:37:06.908Z,2788.00
2018-07-29T07:38:06.576Z,2808.00
2018-07-29T07:39:06.599Z,2804.00
2018-07-29T07:40:06.554Z,2932.00
2018-07-29T07:41:06.638Z,3044.00
2018-07-29T07:42:06.513Z,3172.00
2018-07-29T07:43:06.506Z,3288.00
2018-07-29T07:44:06.793Z,3348.00
2018-07-29T07:45:06.532Z,3432.00
2018-07-29T07:46:06.579Z,3496.00
2018-07-29T07:47:06.537Z,3596.00
2018-07-29T07:48:06.446Z,3652.00
2018-07-29T07:49:06.444Z,3704.00
2018-07-29T07:50:06.431Z,3920.00
2018-07-29T07:51:06.717Z,4068.00
2018-07-29T07:52:06.402Z,4220.00
2018-07-29T07:53:06.392Z,4408.00
2018-07-29T07:54:06.472Z,4484.00
2018-07-29T07:55:06.373Z,4656.00
2018-07-29T07:56:06.360Z,4620.00
2018-07-29T07:57:06.653Z,5148.00
2018-07-29T07:58:06.386Z,5340.00
2018-07-29T07:59:06.325Z,5572.00
2018-07-29T08:00:06.361Z,5844.00
2018-07-29T08:01:06.331Z,5992.00
2018-07-29T08:02:06.320Z,6160.00
2018-07-29T08:03:06.593Z,6232.00
2018-07-29T08:04:06.279Z,6304.00
2018-07-29T08:05:06.275Z,6364.00
2018-07-29T08:06:06.255Z,6596.00
2018-07-29T08:07:06.248Z,6592.00
2018-07-29T08:08:06.237Z,6880.00
2018-07-29T08:09:06.581Z,6948.00
2018-07-29T08:10:06.269Z,7524.00
2018-07-29T08:11:06.209Z,7680.00
2018-07-29T08:12:06.205Z,7708.00
2018-07-29T08:13:06.191Z,7444.00
2018-07-29T08:14:06.179Z,7380.00
2018-07-29T08:15:06.577Z,7548.00
2018-07-29T08:16:06.190Z,7364.00
2018-07-29T08:17:06.153Z,7380.00
2018-07-29T08:18:06.198Z,7520.00
2018-07-29T08:19:06.171Z,7388.00
2018-07-29T08:20:06.129Z,7100.00
2018-07-29T08:21:06.527Z,7012.00
2018-07-29T08:22:06.108Z,7304.00
2018-07-29T08:23:06.101Z,7784.00
2018-07-29T08:24:06.095Z,8160.00
2018-07-29T08:25:06.100Z,8396.00
2018-07-29T08:26:06.076Z,8556.00
2018-07-29T08:27:06.372Z,8736.00
2018-07-29T08:28:06.119Z,8668.00
2018-07-29T08:29:06.057Z,8708.00
2018-07-29T08:30:06.093Z,8960.00
2018-07-29T08:31:06.031Z,9268.00
2018-07-29T08:32:06.056Z,9388.00
2018-07-29T08:33:06.328Z,9900.00
2018-07-29T08:34:06.008Z,10388.00
2018-07-29T08:35:06.060Z,10900.00
2018-07-29T08:36:05.994Z,11364.00
2018-07-29T08:37:05.986Z,11472.00
2018-07-29T08:38:06.016Z,11716.00
2018-07-29T08:39:06.018Z,12232.00
2018-07-29T08:40:06.259Z,12456.00
2018-07-29T08:41:05.950Z,12404.00
2018-07-29T08:42:05.942Z,13188.00
2018-07-29T08:43:05.972Z,13212.00
2018-07-29T08:44:05.928Z,13336.00
2018-07-29T08:45:05.982Z,13292.00
2018-07-29T08:46:05.949Z,12096.00
2018-07-29T08:47:06.207Z,12624.00
2018-07-29T08:48:05.905Z,12756.00
2018-07-29T08:49:05.891Z,11712.00
2018-07-29T08:50:05.887Z,11100.00
2018-07-29T08:51:05.930Z,10456.00
2018-07-29T08:52:05.921Z,10548.00
2018-07-29T08:53:06.170Z,10368.00
2018-07-29T08:54:05.859Z,10148.00
2018-07-29T08:55:05.901Z,9912.00
2018-07-29T08:56:05.866Z,9392.00
2018-07-29T08:57:05.914Z,8908.00
2018-07-29T08:58:05.881Z,8476.00
2018-07-29T08:59:05.893Z,8136.00
2018-07-29T09:00:06.194Z,7876.00
2018-07-29T09:01:05.829Z,8056.00
2018-07-29T09:02:05.813Z,7728.00
2018-07-29T09:03:05.855Z,7360.00
2018-07-29T09:04:05.930Z,6644.00
2018-07-29T09:05:05.796Z,6404.00
2018-07-29T09:06:06.094Z,6008.00
2018-07-29T09:07:05.783Z,5604.00
2018-07-29T09:08:05.773Z,5120.00
2018-07-29T09:09:05.821Z,5820.00
2018-07-29T09:10:05.759Z,6092.00
2018-07-29T09:11:05.841Z,6164.00
2018-07-29T09:12:05.747Z,6200.00
2018-07-29T09:13:06.044Z,5988.00
2018-07-29T09:14:05.831Z,6348.00
2018-07-29T09:15:05.805Z,6316.00
2018-07-29T09:16:05.723Z,6268.00
2018-07-29T09:17:05.718Z,6484.00
2018-07-29T09:18:05.717Z,6632.00
2018-07-29T09:19:05.710Z,6608.00
2018-07-29T09:20:06.007Z,6424.00
2018-07-29T09:21:05.755Z,6716.00
2018-07-29T09:22:05.691Z,6696.00
2018-07-29T09:23:05.680Z,6440.00
2018-07-29T09:24:05.672Z,6640.00
2018-07-29T09:25:05.697Z,6764.00
2018-07-29T09:26:05.681Z,6800.00
2018-07-29T09:27:05.959Z,6500.00
2018-07-29T09:28:05.653Z,7180.00
2018-07-29T09:29:05.863Z,7196.00
2018-07-29T09:30:05.644Z,7508.00
2018-07-29T09:31:05.759Z,7612.00
2018-07-29T09:32:05.996Z,7616.00
2018-07-29T09:33:05.930Z,7696.00
2018-07-29T09:34:05.662Z,7688.00
2018-07-29T09:35:05.633Z,7544.00
2018-07-29T09:36:05.619Z,7588.00
2018-07-29T09:37:05.615Z,7396.00
2018-07-29T09:38:05.613Z,7192.00
2018-07-29T09:39:05.989Z,7688.00
2018-07-29T09:40:05.855Z,7948.00
2018-07-29T09:41:05.603Z,8064.00
2018-07-29T09:42:05.599Z,8108.00
2018-07-29T09:43:05.604Z,8240.00
2018-07-29T09:44:05.592Z,8416.00
2018-07-29T09:45:05.705Z,8544.00
2018-07-29T09:46:05.886Z,8868.00
2018-07-29T09:47:05.590Z,8696.00
2018-07-29T09:48:05.584Z,8880.00
2018-07-29T09:49:05.621Z,8972.00
2018-07-29T09:50:05.579Z,9084.00
2018-07-29T09:51:05.630Z,9264.00
2018-07-29T09:52:05.578Z,9408.00
2018-07-29T09:53:05.874Z,9684.00
2018-07-29T09:54:05.576Z,9848.00
2018-07-29T09:55:05.606Z,10020.00
2018-07-29T09:56:05.576Z,10244.00
2018-07-29T09:57:05.623Z,10416.00
2018-07-29T09:58:05.619Z,10600.00
2018-07-29T09:59:05.871Z,10704.00
2018-07-29T10:00:05.579Z,10952.00
2018-07-29T10:01:05.571Z,11052.00
2018-07-29T10:02:05.566Z,11088.00
2018-07-29T10:03:05.651Z,10712.00
2018-07-29T10:04:05.571Z,10420.00
2018-07-29T10:05:05.872Z,10428.00
2018-07-29T10:06:05.567Z,10780.00
2018-07-29T10:07:05.572Z,11000.00
2018-07-29T10:08:05.566Z,11472.00
2018-07-29T10:09:05.724Z,11088.00
2018-07-29T10:10:05.566Z,11584.00
2018-07-29T10:11:05.899Z,11912.00
2018-07-29T10:12:05.567Z,12048.00
2018-07-29T10:13:05.569Z,11592.00
2018-07-29T10:14:05.621Z,11128.00
2018-07-29T10:15:05.618Z,12148.00
2018-07-29T10:16:05.572Z,12200.00
2018-07-29T10:17:05.573Z,12404.00
2018-07-29T10:18:05.570Z,12824.00
2018-07-29T10:19:05.573Z,12948.00
2018-07-29T10:20:05.634Z,12928.00
2018-07-29T10:21:05.655Z,12632.00
2018-07-29T10:22:05.576Z,12752.00
2018-07-29T10:23:05.903Z,13204.00
2018-07-29T10:24:05.576Z,13232.00
2018-07-29T10:25:05.592Z,13992.00
2018-07-29T10:26:05.585Z,12140.00
2018-07-29T10:27:05.667Z,12328.00
2018-07-29T10:28:05.596Z,13248.00
2018-07-29T10:29:05.895Z,13192.00
2018-07-29T10:30:05.585Z,13388.00
2018-07-29T10:31:05.585Z,13624.00
2018-07-29T10:32:05.588Z,13756.00
2018-07-29T10:33:05.643Z,13556.00
2018-07-29T10:34:05.595Z,13664.00
2018-07-29T10:35:05.897Z,13624.00
2018-07-29T10:36:05.595Z,13392.00
2018-07-29T10:37:05.597Z,14752.00
2018-07-29T10:38:05.598Z,15040.00
2018-07-29T10:39:05.651Z,15648.00
2018-07-29T10:40:05.607Z,16608.00
2018-07-29T10:41:05.908Z,21600.00
2018-07-29T10:42:05.607Z,52512.00
2018-07-29T10:43:05.613Z,81824.00
2018-07-29T10:44:05.611Z,81504.00
2018-07-29T10:45:05.679Z,81120.00
2018-07-29T10:46:05.620Z,86912.00
2018-07-29T10:47:05.620Z,88768.00
2018-07-29T10:48:05.923Z,86432.00
2018-07-29T10:49:05.627Z,88448.00
2018-07-29T10:50:05.628Z,93312.00
2018-07-29T10:51:05.679Z,91584.00
2018-07-29T10:52:05.633Z,90528.00
2018-07-29T10:53:05.691Z,90976.00
2018-07-29T10:54:05.647Z,94848.00
2018-07-29T10:55:05.942Z,60352.00
2018-07-29T10:56:05.652Z,66784.00
2018-07-29T10:57:05.699Z,68928.00
2018-07-29T10:58:05.680Z,69536.00
2018-07-29T10:59:05.672Z,78976.00
2018-07-29T11:00:05.653Z,60480.00
2018-07-29T11:01:05.958Z,39776.00
2018-07-29T11:02:05.864Z,46304.00
2018-07-29T11:03:05.725Z,43072.00
2018-07-29T11:04:05.669Z,34752.00
2018-07-29T11:05:05.717Z,43616.00
2018-07-29T11:06:05.670Z,46912.00
2018-07-29T11:07:05.987Z,49728.00
2018-07-29T11:08:05.681Z,59232.00
2018-07-29T11:09:05.728Z,78752.00
2018-07-29T11:10:05.685Z,81056.00
2018-07-29T11:11:05.734Z,58464.00
2018-07-29T11:12:05.689Z,98144.00
2018-07-29T11:13:05.985Z,96544.00
2018-07-29T11:14:05.687Z,94944.00
2018-07-29T11:15:05.743Z,94400.00
2018-07-29T11:16:05.689Z,54912.00
2018-07-29T11:17:05.746Z,82176.00
2018-07-29T11:18:05.698Z,56960.00
2018-07-29T11:19:06.058Z,34752.00
2018-07-29T11:20:05.705Z,44640.00
2018-07-29T11:21:05.882Z,41248.00
2018-07-29T11:22:05.709Z,39136.00
2018-07-29T11:23:05.711Z,65856.00
2018-07-29T11:24:05.735Z,34656.00
2018-07-29T11:25:06.024Z,20768.00
2018-07-29T11:26:05.711Z,53088.00
2018-07-29T11:27:05.777Z,36192.00
2018-07-29T11:28:05.775Z,58976.00
2018-07-29T11:29:05.718Z,54656.00
2018-07-29T11:30:05.719Z,31488.00
2018-07-29T11:31:06.020Z,30208.00
2018-07-29T11:32:05.729Z,27680.00
2018-07-29T11:33:05.771Z,27648.00
2018-07-29T11:34:05.728Z,30336.00
2018-07-29T11:35:05.780Z,29216.00
2018-07-29T11:36:05.845Z,25248.00
2018-07-29T11:37:06.024Z,23680.00
2018-07-29T11:38:05.783Z,22784.00
2018-07-29T11:39:05.773Z,24736.00
2018-07-29T11:40:05.780Z,25888.00
2018-07-29T11:41:05.732Z,28064.00
2018-07-29T11:42:05.728Z,29440.00
2018-07-29T11:43:05.731Z,30016.00
2018-07-29T11:44:06.072Z,29792.00
2018-07-29T11:45:05.772Z,29760.00
2018-07-29T11:46:05.720Z,56544.00
2018-07-29T11:47:05.719Z,32640.00
2018-07-29T11:48:05.722Z,34656.00
2018-07-29T11:49:05.721Z,42336.00
2018-07-29T11:50:06.024Z,43744.00
2018-07-29T11:51:05.771Z,68608.00
2018-07-29T11:52:05.719Z,47168.00
2018-07-29T11:53:05.717Z,34432.00
2018-07-29T11:54:05.720Z,47488.00
2018-07-29T11:55:05.743Z,37600.00
2018-07-29T11:56:06.011Z,41920.00
2018-07-29T11:57:05.765Z,35904.00
2018-07-29T11:58:05.709Z,38048.00
2018-07-29T11:59:05.730Z,44960.00
2018-07-29T12:00:05.766Z,49536.00
2018-07-29T12:01:05.729Z,60160.00
2018-07-29T12:02:06.011Z,68544.00
2018-07-29T12:03:05.833Z,63296.00
2018-07-29T12:04:05.728Z,40480.00
2018-07-29T12:05:05.759Z,42656.00
2018-07-29T12:06:05.718Z,41984.00
2018-07-29T12:07:05.703Z,48480.00
2018-07-29T12:08:05.701Z,59264.00
2018-07-29T12:09:06.005Z,41568.00
2018-07-29T12:10:05.702Z,39488.00
2018-07-29T12:11:05.705Z,35264.00
2018-07-29T12:12:05.704Z,57248.00
2018-07-29T12:13:05.710Z,48032.00
2018-07-29T12:14:05.752Z,63712.00
2018-07-29T12:16:05.756Z,82784.00
2018-07-29T12:17:05.707Z,92224.00
2018-07-29T12:18:05.704Z,64576.00
2018-07-29T12:19:05.721Z,68064.00
2018-07-29T12:20:05.737Z,65472.00
2018-07-29T12:21:06.003Z,88832.00
2018-07-29T12:22:05.700Z,56416.00